»·PEaware :: UAL821 KSFO-KLAS

UAL821 :: KSFO-KLAS

FLIGHT INFORMATION

Flight Status: Arrived
Operator:
United Airlines
More flights by this operator :: More flights under this callsign
Pilot: Jeff G. (394)
Aircraft: BOEING 767-300
(B763)
More flights by this aircraft type
Origin: KSFO San Francisco Intl
United States
Destination: KLAS McCarran Intl
United States
More flights between these airports :: More routes between these airports
Route: +SSTIK3 NTELL Q162 KENNO BTY SUNST3
File this flight plan on PilotEdge
Remarks: / L
Altitude:
(Current/Filed)
270ft
Speed:
(Current/Filed)
469kts
Departed: 02-Jan-16 08:42 PM
Arrived: 02-Jan-16 09:57 PM
Distance/Time
Traveled:
359nm/1:15
Distance/Time
To Go:
Arrived

Flight Plot

Page will automatically refresh every two minutes.

Flight plan parsing failed; only flown route is shown


Map Options




Map Legend


Flown Route
Filed Route
Departure Airport
Arrival Airport
Navaid (VOR, NDB)
Fix

Horizontal Profiles

Position Reports

Time Latitude Longitude Heading Altitude Ground
Speed
02-Jan-16 20:05 37.620709 -122.387621 206 24ft 0kts
02-Jan-16 20:06 37.620709 -122.387621 206 24ft 0kts
02-Jan-16 20:07 37.620709 -122.387621 206 24ft 0kts
02-Jan-16 20:08 37.620709 -122.387621 206 24ft 0kts
02-Jan-16 20:09 37.620709 -122.387621 206 24ft 0kts
02-Jan-16 20:10 37.620709 -122.387621 206 24ft 0kts
02-Jan-16 20:11 37.620709 -122.387621 206 24ft 0kts
02-Jan-16 20:12 37.620709 -122.387621 206 24ft 0kts
02-Jan-16 20:13 37.620709 -122.387621 206 24ft 0kts
02-Jan-16 20:14 37.620709 -122.387621 206 24ft 0kts
02-Jan-16 20:15 37.620709 -122.387621 206 24ft 0kts
02-Jan-16 20:16 37.620709 -122.387621 206 24ft 0kts
02-Jan-16 20:17 37.620709 -122.387621 206 24ft 0kts
02-Jan-16 20:18 37.620709 -122.387621 206 24ft 0kts
02-Jan-16 20:19 37.620709 -122.387621 206 24ft 0kts
02-Jan-16 20:20 37.620709 -122.387621 206 24ft 0kts
02-Jan-16 20:21 37.620709 -122.387621 206 24ft 0kts
02-Jan-16 20:22 37.620709 -122.387621 206 24ft 0kts
02-Jan-16 20:23 37.620851 -122.387533 206 24ft 0kts
02-Jan-16 20:24 37.621329 -122.387235 206 24ft 0kts
02-Jan-16 20:25 37.621451 -122.387044 275 24ft 0kts
02-Jan-16 20:26 37.621451 -122.387044 275 24ft 0kts
02-Jan-16 20:27 37.621451 -122.387044 275 24ft 0kts
02-Jan-16 20:28 37.621425 -122.387050 283 24ft 3kts
02-Jan-16 20:29 37.621392 -122.387064 294 24ft 0kts
02-Jan-16 20:30 37.621396 -122.387082 297 24ft 0kts
02-Jan-16 20:31 37.621567 -122.386809 112 24ft 3kts
02-Jan-16 20:32 37.620832 -122.384808 116 24ft 9kts
02-Jan-16 20:33 37.619133 -122.380762 117 24ft 14kts
02-Jan-16 20:34 37.615483 -122.380406 207 24ft 16kts
02-Jan-16 20:35 37.611259 -122.383187 207 24ft 18kts
02-Jan-16 20:36 37.609423 -122.383696 110 24ft 0kts
02-Jan-16 20:37 37.609035 -122.382412 88 24ft 7kts
02-Jan-16 20:38 37.618395 -122.375982 28 34ft 152kts
02-Jan-16 20:39 37.666812 -122.361927 5 2178ft 232kts
02-Jan-16 20:40 37.709534 -122.400547 270 5758ft 249kts
02-Jan-16 20:41 37.661947 -122.447626 177 9076ft 248kts
02-Jan-16 20:42 37.593238 -122.455428 187 9968ft 249kts
02-Jan-16 20:43 37.525073 -122.467884 190 11790ft 255kts
02-Jan-16 20:44 37.474342 -122.415546 106 13379ft 339kts
02-Jan-16 20:45 37.458357 -122.314979 108 14569ft 384kts
02-Jan-16 20:46 37.436809 -122.213210 109 17300ft 396kts
02-Jan-16 20:47 37.410407 -122.093262 109 19059ft 409kts
02-Jan-16 20:48 37.388339 -121.993698 109 19063ft 407kts
02-Jan-16 20:49 37.366418 -121.895526 110 20792ft 419kts
02-Jan-16 20:50 37.342816 -121.788249 110 22897ft 431kts
02-Jan-16 20:51 37.316091 -121.669196 110 24883ft 445kts
02-Jan-16 20:52 37.287045 -121.540762 110 26962ft 450kts
02-Jan-16 20:53 37.253192 -121.392019 110 27061ft 444kts
02-Jan-16 20:54 37.219809 -121.246330 110 27066ft 444kts
02-Jan-16 20:55 37.185696 -121.098387 110 27070ft 446kts
02-Jan-16 20:56 37.150890 -120.948390 109 27077ft 449kts
02-Jan-16 20:57 37.116307 -120.798414 110 27072ft 448kts
02-Jan-16 20:58 37.081652 -120.650502 110 27073ft 448kts
02-Jan-16 20:59 37.046414 -120.501439 110 27073ft 448kts
02-Jan-16 21:00 37.011319 -120.353925 110 27078ft 449kts
02-Jan-16 21:01 36.975921 -120.206036 110 27084ft 449kts
02-Jan-16 21:02 36.940219 -120.057789 110 27084ft 449kts
02-Jan-16 21:03 36.910497 -119.906424 94 27085ft 460kts
02-Jan-16 21:04 36.942267 -119.756660 67 27087ft 468kts
02-Jan-16 21:05 36.991891 -119.607947 69 27081ft 468kts
02-Jan-16 21:06 37.039231 -119.462184 69 27083ft 468kts
02-Jan-16 21:07 37.086733 -119.314982 69 27084ft 468kts
02-Jan-16 21:08 37.133836 -119.168244 69 27107ft 469kts
02-Jan-16 21:09 37.180254 -119.022918 68 27140ft 471kts
02-Jan-16 21:10 37.228715 -118.870755 68 27142ft 471kts
02-Jan-16 21:11 37.274459 -118.718870 79 27139ft 469kts
02-Jan-16 21:12 37.291659 -118.557446 85 27163ft 467kts
02-Jan-16 21:13 37.306481 -118.395094 85 27167ft 467kts
02-Jan-16 21:14 37.320934 -118.233137 85 27168ft 467kts
02-Jan-16 21:15 37.335154 -118.071200 85 27169ft 467kts
02-Jan-16 21:16 37.348636 -117.908925 89 27166ft 466kts
02-Jan-16 21:17 37.338047 -117.749240 99 27165ft 462kts
02-Jan-16 21:18 37.323772 -117.589146 99 27165ft 462kts
02-Jan-16 21:19 37.311857 -117.458765 99 27166ft 463kts
02-Jan-16 21:20 37.279726 -117.304998 125 27167ft 451kts
02-Jan-16 21:21 37.195027 -117.193477 142 27169ft 440kts
02-Jan-16 21:22 37.104731 -117.090640 142 27155ft 441kts
02-Jan-16 21:23 37.014042 -116.988111 142 26075ft 439kts
02-Jan-16 21:24 36.926484 -116.889397 143 25042ft 415kts
02-Jan-16 21:25 36.845068 -116.797268 143 24064ft 409kts
02-Jan-16 21:26 36.766053 -116.697768 137 23124ft 400kts
02-Jan-16 21:27 36.693507 -116.594666 137 22364ft 393kts
02-Jan-16 21:28 36.622320 -116.493576 137 21440ft 385kts
02-Jan-16 21:29 36.552585 -116.394827 137 20521ft 378kts
02-Jan-16 21:30 36.484399 -116.298548 136 19607ft 371kts
02-Jan-16 21:31 36.417356 -116.204133 136 18716ft 365kts
02-Jan-16 21:32 36.351178 -116.111200 136 17848ft 359kts
02-Jan-16 21:33 36.286693 -116.020851 136 16946ft 339kts
02-Jan-16 21:34 36.227491 -115.938121 136 16022ft 305kts
02-Jan-16 21:35 36.184494 -115.849443 117 16016ft 313kts
02-Jan-16 21:36 36.152339 -115.749596 117 15601ft 312kts
02-Jan-16 21:37 36.121083 -115.652720 117 14655ft 304kts
02-Jan-16 21:38 36.090382 -115.557866 116 13770ft 300kts
02-Jan-16 21:39 36.062435 -115.471762 116 12594ft 293kts
02-Jan-16 21:40 36.032957 -115.380098 109 11303ft 289kts
02-Jan-16 21:41 36.024486 -115.283914 99 10016ft 282kts
02-Jan-16 21:42 36.017688 -115.190846 98 8978ft 264kts
02-Jan-16 21:43 36.011925 -115.106342 97 8250ft 235kts
02-Jan-16 21:44 36.007117 -115.029580 96 8032ft 222kts
02-Jan-16 21:45 36.002438 -114.951825 94 8051ft 248kts
02-Jan-16 21:46 35.997401 -114.868171 95 7817ft 234kts
02-Jan-16 21:47 36.037828 -114.830211 326 6298ft 223kts
02-Jan-16 21:48 36.063879 -114.898287 309 4687ft 229kts
02-Jan-16 21:49 36.075235 -114.974001 270 3277ft 216kts
02-Jan-16 21:50 36.074265 -115.041075 272 2214ft 167kts
02-Jan-16 21:51 36.073740 -115.100114 270 2289ft 168kts
02-Jan-16 21:52 36.073617 -115.148600 267 2152ft 79kts
02-Jan-16 21:53 36.074402 -115.154601 306 2152ft 5kts
02-Jan-16 21:54 36.074501 -115.154770 305 2152ft 2kts
02-Jan-16 21:55 36.077150 -115.158216 332 2152ft 2kts
02-Jan-16 21:56 36.077209 -115.158243 341 2152ft 3kts
02-Jan-16 21:57 36.077974 -115.153961 91 2152ft 18kts
02-Jan-16 21:58 36.077815 -115.147586 95 2152ft 20kts
02-Jan-16 21:59 36.079153 -115.144390 5 2152ft 13kts
02-Jan-16 22:00 36.081432 -115.145680 256 2152ft 2kts

Navigation Log

Ident Type
Flight plan parsing failed, navigation log unavailable